Nickajack Observed Data For Previous 48 Hours

Caption
Day and Hour Reservoir Elevation (behind dam)* Tailwater Elevation (below dam)* Average Hourly Discharge*
11/16/2017 1 AM CST 633.18 597.54 42,226
11/16/2017 2 AM CST 633.07 597.54 42,175
11/16/2017 3 AM CST 632.85 597.53 42,120
11/16/2017 4 AM CST 632.60 597.53 42,162
11/16/2017 5 AM CST 632.33 597.51 42,161
11/16/2017 6 AM CST 632.26 596.97 33,565
11/16/2017 7 AM CST 632.50 596.75 31,874
11/16/2017 8 AM CST 632.61 596.60 31,862
11/16/2017 9 AM CST 632.61 597.11 42,224
11/16/2017 10 AM CST 632.66 597.23 42,279
11/16/2017 11 AM CST 632.66 597.31 42,186
11/16/2017 12 PM CST 632.71 597.40 42,199
11/16/2017 1 PM CST 632.74 597.35 42,160
11/16/2017 2 PM CST 632.82 597.37 42,243
11/16/2017 3 PM CST 632.85 597.37 42,186
11/16/2017 4 PM CST 632.74 597.36 42,098
11/16/2017 5 PM CST 632.67 597.18 40,939
11/16/2017 6 PM CST 632.65 596.74 31,885
11/16/2017 7 PM CST 632.97 596.55 31,859
11/16/2017 8 PM CST 633.17 596.53 32,752
11/16/2017 9 PM CST 633.38 597.00 42,310
11/16/2017 10 PM CST 633.54 597.13 42,320
11/16/2017 11 PM CST 633.54 597.20 42,235
11/17/2017 12 AM CST 633.63 597.27 42,225
11/17/2017 1 AM CST 633.64 597.30 42,238
11/17/2017 2 AM CST 633.67 597.32 42,074
11/17/2017 3 AM CST 633.55 597.30 42,107
11/17/2017 4 AM CST 633.42 597.34 42,118
11/17/2017 5 AM CST 633.31 597.33 42,116
11/17/2017 6 AM CST 633.17 597.36 42,201
11/17/2017 7 AM CST 633.32 597.35 42,109
11/17/2017 8 AM CST 633.22 597.95 50,869
11/17/2017 9 AM CST 633.36 598.12 51,737
11/17/2017 10 AM CST 633.49 598.23 51,698
11/17/2017 11 AM CST 633.62 598.35 51,643
11/17/2017 12 PM CST 633.66 598.36 51,685
11/17/2017 1 PM CST 633.63 598.37 51,678
11/17/2017 2 PM CST 633.53 598.40 51,593
11/17/2017 3 PM CST 633.49 598.41 51,674
11/17/2017 4 PM CST 633.50 597.87 45,140
11/17/2017 5 PM CST 633.46 597.70 42,104
11/17/2017 6 PM CST 633.60 597.62 42,070
11/17/2017 7 PM CST 633.76 597.51 42,128
11/17/2017 8 PM CST 633.88 597.51 42,151
11/17/2017 9 PM CST 633.78 597.49 42,082
11/17/2017 10 PM CST 633.65 597.46 42,151
11/17/2017 11 PM CST 633.54 597.43 42,115
11/18/2017 12 AM CST 633.30 597.45 42,126
11/18/2017 1 AM CST 633.08 597.45 42,134
11/18/2017 2 AM CST 633.05 596.92 32,636
11/18/2017 3 AM CST 632.95 596.73 31,792
11/18/2017 4 AM CST 632.81 596.61 31,780
11/18/2017 5 AM CST 632.71 596.20 29,751
11/18/2017 6 AM CST 632.62 596.03 26,239
11/18/2017 7 AM CST 632.59 595.94 26,176
11/18/2017 8 AM CST 632.60 595.87 26,152
11/18/2017 9 AM CST 632.57 596.53 31,724
11/18/2017 10 AM CST 632.56 596.98 41,910

Elevations are in feet above sea level. Discharges are in cubic feet per second and are reported at the end of the hour.